Date,TemperatureHighF,TemperatureAvgF,TemperatureLowF,DewpointHighF,DewpointAvgF,DewpointLowF,HumidityHigh,HumidityAvg,HumidityLow,PressureMaxIn,PressureMinIn,WindSpeedMaxMPH,WindSpeedAvgMPH,GustSpeedMaxMPH,PrecipitationSumIn
2014-1-26,31,16,5,31,15,5,99,96,82,0.00,40.00,16,10,22,0.00
2014-1-27,35,14,1,34,12,1,99,90,72,0.00,40.00,21,12,40,0.00
2014-1-28,9,1,-9,2,-4,-9,99,82,59,0.00,40.00,11,7,17,0.00
2014-1-29,16,8,0,6,2,-7,93,74,57,0.00,40.00,21,12,28,0.00
2014-1-30,30,20,9,12,7,5,81,59,39,0.00,40.00,19,12,31,0.00
2014-1-31,37,32,30,31,23,12,99,70,47,0.00,40.00,11,7,17,0.00
2014-2-1,44,35,30,44,33,-100,99,97,96,0.00,40.00,15,6,27,0.00
2014-3-2,19,13,8,19,12,8,99,96,80,0.00,40.00,12,7,16,0.00
2014-3-3,9,6,1,8,5,1,99,95,84,0.00,40.00,12,6,16,0.00
2014-3-4,27,14,1,16,7,1,99,78,37,0.00,40.00,6,3,10,0.00
2014-3-5,24,19,15,17,14,10,92,81,71,0.00,40.00,14,7,20,0.00
2014-3-6,38,26,14,22,15,9,89,65,43,0.00,40.00,10,5,14,0.00
2014-3-7,53,38,26,36,29,22,95,72,49,0.00,40.00,9,4,14,0.00
2014-3-8,38,30,23,38,30,23,99,99,96,0.00,40.00,7,5,13,0.00
2014-3-25,36,25,19,30,21,13,99,85,40,0.00,40.00,13,6,20,0.00
2014-3-26,25,20,14,21,15,12,99,83,63,0.00,40.00,12,6,19,0.00
2014-3-27,47,33,20,39,23,15,90,68,47,0.00,40.00,16,9,30,0.00
2014-3-28,55,46,37,55,45,37,99,96,67,0.00,40.00,21,12,34,0.00
2014-3-29,37,34,31,37,34,31,99,99,99,0.00,40.00,18,9,31,0.00
2014-3-30,38,32,28,32,27,-100,99,89,73,0.00,40.00,17,8,24,0.00
2014-3-31,56,43,27,32,24,18,88,52,24,0.00,40.00,6,2,9,0.00
2014-4-6,54,41,28,34,27,-100,99,65,36,0.00,40.00,9,3,14,0.00
2014-4-7,56,46,41,48,37,29,99,72,50,0.00,40.00,9,4,19,0.00
2014-4-8,53,44,36,42,35,25,99,73,35,0.00,40.00,14,6,20,0.00
2014-4-9,49,43,37,38,32,22,94,67,37,0.00,40.00,9,5,15,0.00
2014-4-10,69,57,43,53,37,29,99,51,30,0.00,40.00,24,13,34,0.00
2014-4-11,58,52,45,52,46,36,99,80,45,0.00,40.00,11,4,14,0.00
2014-4-12,73,61,48,47,42,36,89,53,28,0.00,40.00,12,7,21,0.00
2014-4-13,65,57,64,46,27,-100,50,48,44,0.00,40.00,6,6,9,0.00
2014-6-15,-200,0,200,-100,-100,-100,90,90,90,0.00,40.00,0,0,3,0.00
2014-6-16,71,70,70,70,63,56,98,78,59,0.00,40.00,6,5,8,0.00
2014-6-19,67,67,67,67,67,67,99,99,99,0.00,40.00,2,2,6,0.00
2014-6-20,70,68,62,69,66,52,97,91,67,0.00,40.00,6,5,9,0.00
2014-6-29,75,56,74,74,30,-100,99,74,98,0.00,40.00,6,6,10,0.00
2014-7-3,68,68,68,67,67,67,96,96,96,0.00,40.00,7,7,10,0.00
2014-7-5,66,66,66,58,58,58,76,76,76,0.00,40.00,3,3,6,0.00
2014-7-6,66,33,66,58,-21,-100,76,38,76,0.00,40.00,3,3,6,0.00
2014-7-12,67,66,66,56,56,56,70,70,69,0.00,40.00,2,1,6,0.00
2014-7-13,72,36,72,72,36,72,99,50,99,0.00,40.00,7,6,12,0.00
2014-7-29,66,61,59,55,54,53,87,77,62,0.00,40.00,7,4,12,0.00
2014-7-30,73,73,73,62,62,62,67,67,67,0.00,40.00,6,6,12,0.00
2014-7-31,69,48,60,66,48,60,99,84,46,0.00,40.00,7,6,14,0.00
2014-8-1,76,69,64,66,64,63,98,84,69,0.00,40.00,4,4,7,0.00
2014-8-2,67,66,66,67,66,66,99,99,99,0.00,40.00,7,4,11,0.00
2014-8-3,68,66,65,67,66,65,99,99,99,0.00,40.00,1,1,2,0.00
2014-8-4,81,73,63,66,62,58,99,71,45,0.00,40.00,6,4,12,0.00
2014-8-15,68,61,52,56,51,44,99,73,42,0.00,40.00,9,4,16,0.00
2014-8-16,79,66,54,71,55,49,99,70,38,0.00,40.00,13,7,19,0.00
2014-8-17,77,68,65,70,62,58,99,80,60,0.00,40.00,11,5,16,0.00
2014-8-18,79,69,62,68,61,56,95,75,54,0.00,40.00,9,4,14,0.00
2014-8-19,88,74,61,71,65,61,99,76,50,0.00,40.00,9,3,12,0.00
2014-8-20,81,73,65,76,71,65,99,93,79,0.00,40.00,11,6,19,0.00
2014-8-21,81,74,68,77,72,68,99,95,80,0.00,40.00,9,4,12,0.00
2014-8-22,82,74,70,78,73,70,99,96,84,0.00,40.00,8,4,11,0.00
2014-8-23,80,72,67,73,70,67,99,93,70,0.00,40.00,11,4,15,0.00
2014-8-24,81,71,67,72,68,67,99,88,70,0.00,40.00,7,4,13,0.00
2014-8-25,85,74,64,74,70,64,99,88,64,0.00,40.00,7,4,12,0.00
2014-8-26,88,78,67,77,73,67,99,85,66,0.00,40.00,12,6,22,0.00
2014-8-27,77,72,66,75,70,66,99,94,81,0.00,40.00,10,4,16,0.00
2014-8-28,69,64,59,64,58,53,99,80,59,0.00,40.00,9,4,17,0.00
2014-9-8,78,66,55,64,57,53,97,74,44,0.00,40.00,9,4,15,0.00
2014-9-9,77,69,63,71,67,63,99,92,77,0.00,40.00,9,5,14,0.00
2014-9-10,80,72,65,76,71,65,99,97,85,0.00,40.00,13,7,24,0.00
2014-9-11,73,62,56,73,62,56,99,99,99,0.00,40.00,16,8,24,0.00
2014-9-12,62,56,53,58,55,53,99,95,75,0.00,40.00,9,4,12,0.00
2014-9-13,59,55,53,56,52,49,99,90,73,0.00,40.00,13,5,22,0.00
2014-9-14,53,44,43,50,43,43,99,93,89,0.00,40.00,2,0,2,0.00
2014-9-28,75,63,54,64,58,54,99,85,55,0.00,40.00,6,1,9,0.00
2014-9-29,74,64,54,60,57,54,99,80,55,0.00,40.00,7,2,11,0.00
2014-9-30,62,59,54,62,59,54,99,99,98,0.00,40.00,7,4,11,0.00
2014-10-1,71,61,53,67,60,53,99,97,77,0.00,40.00,7,2,9,0.00
2014-10-2,77,63,52,64,58,52,99,85,56,0.00,40.00,9,4,17,0.00
2014-10-3,70,63,55,69,62,55,99,94,81,0.00,40.00,15,8,24,0.00
2014-10-4,55,46,41,55,40,28,99,80,51,0.00,40.00,17,11,25,0.00
2014-10-21,53,49,46,53,49,46,99,99,99,0.00,40.00,11,6,17,0.00
2014-10-22,50,48,46,50,47,46,99,97,89,0.00,40.00,9,5,16,0.00
2014-10-23,55,49,42,52,48,42,99,96,81,0.00,40.00,7,4,14,0.00
2014-10-24,61,50,41,49,45,41,99,84,53,0.00,40.00,7,3,12,0.00
2014-10-25,67,58,49,60,52,42,99,82,53,0.00,40.00,15,8,24,0.00
2014-10-26,56,52,42,43,39,35,88,62,47,0.00,40.00,13,7,24,0.00
2014-10-27,73,57,37,63,45,36,99,69,32,0.00,40.00,17,6,32,0.00
2014-10-28,71,70,70,62,61,61,76,72,71,0.00,40.00,15,13,24,0.00
2014-11-19,22,22,22,21,21,21,93,93,93,0.00,40.00,15,15,22,0.00
2014-11-20,26,24,23,17,15,14,76,67,59,0.00,40.00,19,17,32,0.00
2014-11-22,-200,0,200,-100,0,200,0,0,100,0.00,40.00,9,9,16,0.00
2014-11-24,62,51,40,60,47,32,99,84,73,0.00,40.00,27,19,45,0.00
2014-11-25,39,35,31,34,32,30,96,87,76,0.00,40.00,19,10,27,0.00
2014-11-26,37,34,31,33,31,30,99,90,77,0.00,40.00,6,2,8,0.00
2014-11-27,34,31,28,34,31,26,99,97,84,0.00,40.00,12,6,20,0.00
2014-11-28,29,26,23,27,22,18,99,84,68,0.00,40.00,14,7,20,0.00
2014-11-29,49,37,28,44,31,25,92,75,58,0.00,40.00,17,10,28,0.00
2014-11-30,61,56,49,60,54,45,99,94,84,0.00,40.00,15,11,24,0.00
2014-12-1,49,34,27,49,31,19,99,87,57,0.00,40.00,14,8,18,0.00
2014-12-2,34,30,25,34,27,20,99,90,76,0.00,40.00,8,5,17,0.00
2014-12-3,38,35,31,35,31,23,99,86,62,0.00,40.00,17,8,24,0.00
2014-12-4,36,31,28,32,28,24,98,87,74,0.00,40.00,8,3,14,0.00
2014-12-5,40,36,30,40,35,28,99,93,81,0.00,40.00,8,3,11,0.00
2014-12-6,39,37,34,39,34,28,99,90,70,0.00,40.00,16,10,24,0.00
2014-12-7,39,33,29,29,24,18,89,71,44,0.00,40.00,11,5,15,0.00
2014-12-8,43,38,33,37,18,15,99,46,32,0.00,40.00,14,9,23,0.00
2014-12-9,40,37,34,39,37,34,99,98,92,0.00,40.00,11,6,18,0.00
2014-12-10,36,28,30,36,28,30,99,90,99,0.00,40.00,13,10,23,0.00
2014-12-11,35,30,27,33,27,21,99,85,59,0.00,40.00,17,11,27,0.00
2014-12-12,32,31,29,32,31,29,99,99,98,0.00,40.00,11,6,19,0.00
2014-12-13,42,34,28,42,34,28,99,99,99,0.00,40.00,12,7,17,0.00
2014-12-14,46,43,41,46,43,41,99,97,99,0.00,40.00,13,6,22,0.00
2014-12-15,53,46,44,51,46,44,99,98,89,0.00,40.00,11,3,19,0.00
2014-12-16,49,45,43,49,45,43,99,99,99,0.00,40.00,13,8,21,0.00
2014-12-17,43,34,28,43,33,28,99,97,90,0.00,40.00,16,11,24,0.00
2014-12-18,30,29,28,30,29,26,99,97,89,0.00,40.00,14,6,22,0.00
2014-12-19,31,29,28,30,28,26,99,93,84,0.00,40.00,8,5,13,0.00
2014-12-20,31,25,28,29,22,26,95,87,82,0.00,40.00,4,2,7,0.00
2014-12-21,32,30,26,29,27,25,96,90,81,0.00,40.00,6,3,8,0.00
2014-12-22,43,33,25,37,31,25,99,91,75,0.00,40.00,11,5,19,0.00
2014-12-23,51,45,37,51,45,37,99,99,96,0.00,40.00,11,5,18,0.00
2014-12-24,57,52,40,57,52,40,99,99,99,0.00,40.00,22,9,38,0.00
2014-12-25,40,38,37,40,37,35,99,95,82,0.00,40.00,17,11,27,0.00
2014-12-26,49,40,33,42,38,33,99,92,72,0.00,40.00,12,8,17,0.00
2014-12-27,55,46,40,49,41,34,99,82,46,0.00,40.00,14,8,21,0.00
2014-12-28,47,36,32,47,36,32,99,99,99,0.00,40.00,12,6,19,0.00
2014-12-29,33,30,26,32,27,20,99,89,71,0.00,40.00,7,4,12,0.00
2014-12-30,26,23,21,24,20,16,98,87,73,0.00,40.00,10,5,17,0.00
2014-12-31,23,20,16,19,12,6,97,71,52,0.00,40.00,17,11,27,0.00
2015-1-1,33,25,18,19,14,9,77,61,43,0.00,40.00,21,13,29,0.00
2015-1-2,33,29,27,28,24,19,98,82,65,0.00,40.00,11,5,18,0.00